Main page
Satellite images 15-day forecastsClimateMarine weather Cyclones Lightning AirportsFAQ Newsletter About
Weather : Europe Africa North America South America Asia Australia-Oceania Others
Languages Contact

Belgrade, Serbia

Nikola Tesla

latitude: 44-49N, longitude: 020-17E, elevation: 96 m


METAR: LYBE 210000Z 29003KT CAVOK 12/11 Q1015 NOSIG
TAF: LYBE 202300Z 2100/2124 19005KT CAVOK TX22/2112Z TN10/2104Z TEMPO 2104/2106 3000 BR BECMG 2120/2122 13015KT

Time: 02:28 (00:28 UTC)

Current weather observation

The report was made 28 minutes ago, at 00:00 UTC  
Wind 03 kt from the West/Northwest
Temperature 12°C
Humidity 94%
Pressure 1015 hPa
Visibility 10 km or more
no clouds below 1500 m and no cumulonimbus

Change units

Forecast

The report was made 01 hour and 28 minutes ago, at 23:00 UTC  
Forecast valid from 21 at 00 UTC to 21 at 24 UTC
Wind 05 kt from the South
Visibility 10 km or more
no clouds below 1500 m and no cumulonimbus
Temporary
from 21 at 04 UTC to 21 at 06 UTC
Visibility 3000 m
mist
Becoming
from 21 at 20 UTC to 21 at 22 UTC
Wind 15 kt from the Southeast
The information on this site is subject to a disclaimer
Weather : Europe Africa North America South America Asia Australia-Oceania Others
Satellite images 15-day forecastsClimateMarine weather Cyclones Lightning AirportsFAQ Languages Contact Newsletter About